createdAt,value
2023-02-19T00:01:15.938Z,9.88
2023-02-19T00:03:44.218Z,9.86
2023-02-19T00:06:12.444Z,9.85
2023-02-19T00:08:40.885Z,9.82
2023-02-19T00:11:10.092Z,9.82
2023-02-19T00:13:40.498Z,9.89
2023-02-19T00:16:08.713Z,9.80
2023-02-19T00:18:36.666Z,9.79
2023-02-19T00:21:04.560Z,9.76
2023-02-19T00:23:33.089Z,9.77
2023-02-19T00:26:17.250Z,9.73
2023-02-19T00:28:47.478Z,9.76
2023-02-19T00:31:18.730Z,9.83
2023-02-19T00:33:47.973Z,9.74
2023-02-19T00:36:18.954Z,9.77
2023-02-19T00:38:46.503Z,9.79
2023-02-19T00:41:21.579Z,9.77
2023-02-19T00:43:54.694Z,9.75
2023-02-19T00:46:23.660Z,9.76
2023-02-19T00:48:52.517Z,9.71
2023-02-19T00:51:20.586Z,9.74
2023-02-19T00:53:48.208Z,9.82
2023-02-19T00:56:15.767Z,9.71
2023-02-19T00:58:44.764Z,9.71
2023-02-19T01:01:13.980Z,9.77
2023-02-19T01:03:44.860Z,9.75
2023-02-19T01:06:13.246Z,9.69
2023-02-19T01:08:40.792Z,9.73
2023-02-19T01:11:09.791Z,9.74
2023-02-19T01:13:38.154Z,9.71
2023-02-19T01:16:06.485Z,9.69
2023-02-19T01:18:35.618Z,9.78
2023-02-19T01:21:07.114Z,9.91
2023-02-19T01:23:37.864Z,9.82
2023-02-19T01:26:07.152Z,9.82
2023-02-19T01:28:34.953Z,9.80
2023-02-19T01:31:03.605Z,9.88
2023-02-19T01:33:31.462Z,9.91
2023-02-19T01:36:00.518Z,9.87
2023-02-19T01:38:28.829Z,9.88
2023-02-19T01:40:57.638Z,9.94
2023-02-19T01:43:25.427Z,9.87
2023-02-19T01:45:52.923Z,9.93
2023-02-19T01:48:22.215Z,9.81
2023-02-19T01:50:51.750Z,9.81
2023-02-19T01:53:22.665Z,9.77
2023-02-19T01:55:54.216Z,9.76
2023-02-19T01:58:21.822Z,9.60
2023-02-19T02:00:54.607Z,9.58
2023-02-19T02:03:22.224Z,9.47
2023-02-19T02:05:55.061Z,9.50
2023-02-19T02:08:43.171Z,9.50
2023-02-19T02:11:11.080Z,9.57
2023-02-19T02:13:40.208Z,9.58
2023-02-19T02:16:23.512Z,9.63
2023-02-19T02:19:01.006Z,9.64
2023-02-19T02:21:36.669Z,9.65
2023-02-19T02:24:15.842Z,9.57
2023-02-19T02:27:02.831Z,9.63
2023-02-19T02:29:50.552Z,9.63
2023-02-19T02:32:21.757Z,9.58
2023-02-19T02:34:51.235Z,9.61
2023-02-19T02:37:18.718Z,9.62
2023-02-19T02:39:47.039Z,9.71
2023-02-19T02:42:29.505Z,9.67
2023-02-19T02:45:17.273Z,9.69
2023-02-19T02:47:48.139Z,9.61
2023-02-19T02:50:21.198Z,9.52
2023-02-19T02:53:09.574Z,9.45
2023-02-19T02:55:39.960Z,9.42
2023-02-19T02:58:08.167Z,9.46
2023-02-19T03:00:51.856Z,9.46
2023-02-19T03:03:21.567Z,9.57
2023-02-19T03:05:53.510Z,9.55
2023-02-19T03:08:24.298Z,9.64
2023-02-19T03:10:54.571Z,9.50
2023-02-19T03:13:43.497Z,9.51
2023-02-19T03:16:33.902Z,9.49
2023-02-19T03:19:19.925Z,9.48
2023-02-19T03:21:51.833Z,9.52
2023-02-19T03:24:39.359Z,9.51
2023-02-19T03:27:08.206Z,9.52
2023-02-19T03:29:37.784Z,9.58
2023-02-19T03:32:10.730Z,9.59
2023-02-19T03:34:39.784Z,9.62
2023-02-19T03:37:10.108Z,9.55
2023-02-19T03:39:44.187Z,9.50
2023-02-19T03:42:18.979Z,9.52
2023-02-19T03:44:51.550Z,9.50
2023-02-19T03:47:22.557Z,9.46
2023-02-19T03:49:52.555Z,9.38
2023-02-19T03:52:22.518Z,9.42
2023-02-19T03:54:55.423Z,9.42
2023-02-19T03:57:24.952Z,9.48
2023-02-19T03:59:56.723Z,9.44
2023-02-19T04:02:29.473Z,9.55
2023-02-19T04:05:00.995Z,9.51
2023-02-19T04:07:29.540Z,9.45
2023-02-19T04:09:57.264Z,9.46
2023-02-19T04:12:25.344Z,9.45
2023-02-19T04:14:58.689Z,9.51
2023-02-19T04:17:29.914Z,9.48
2023-02-19T04:19:58.663Z,9.47
2023-02-19T04:22:26.496Z,9.41
2023-02-19T04:24:56.329Z,9.55
2023-02-19T04:27:23.777Z,9.43
2023-02-19T04:29:51.271Z,9.47
2023-02-19T04:32:18.786Z,9.54
2023-02-19T04:34:47.669Z,9.57
2023-02-19T04:37:15.127Z,9.67
2023-02-19T04:39:42.599Z,9.60
2023-02-19T04:42:11.358Z,9.62
2023-02-19T04:44:38.825Z,9.66
2023-02-19T04:47:06.621Z,9.68
2023-02-19T04:49:34.140Z,9.75
2023-02-19T04:52:03.010Z,9.73
2023-02-19T04:54:30.513Z,9.78
2023-02-19T04:56:58.103Z,9.76
2023-02-19T04:59:26.008Z,9.79
2023-02-19T05:01:53.617Z,9.79
2023-02-19T05:04:21.149Z,9.82
2023-02-19T05:06:48.738Z,9.92
2023-02-19T05:09:17.635Z,9.87
2023-02-19T05:11:45.192Z,9.90
2023-02-19T05:14:12.744Z,9.89
2023-02-19T05:16:40.273Z,9.84
2023-02-19T05:19:07.744Z,9.92
2023-02-19T05:21:35.277Z,9.95
2023-02-19T05:24:02.891Z,9.96
2023-02-19T05:26:32.105Z,9.82
2023-02-19T05:29:00.463Z,9.85
2023-02-19T05:31:28.245Z,9.78
2023-02-19T05:33:56.248Z,9.73
2023-02-19T05:36:24.348Z,9.70
2023-02-19T05:38:53.463Z,9.63
2023-02-19T05:41:22.977Z,9.74
2023-02-19T05:43:52.065Z,9.73
2023-02-19T05:46:21.207Z,9.68
2023-02-19T05:48:49.248Z,9.72
2023-02-19T05:51:18.326Z,9.81
2023-02-19T05:53:46.424Z,9.85
2023-02-19T05:56:31.938Z,9.76
2023-02-19T05:59:01.542Z,9.77
2023-02-19T06:01:29.595Z,9.75
2023-02-19T06:03:57.877Z,9.74
2023-02-19T06:06:26.361Z,9.75
2023-02-19T06:08:54.041Z,9.77
2023-02-19T06:11:21.644Z,9.77
2023-02-19T06:13:50.271Z,9.74
2023-02-19T06:16:20.098Z,9.77
2023-02-19T06:18:47.708Z,9.75
2023-02-19T06:21:15.744Z,9.72
2023-02-19T06:23:43.702Z,9.64
2023-02-19T06:26:13.033Z,9.58
2023-02-19T06:28:42.245Z,9.60
2023-02-19T06:31:10.844Z,9.64
2023-02-19T06:33:40.683Z,9.62
2023-02-19T06:36:10.853Z,9.57
2023-02-19T06:38:38.346Z,9.60
2023-02-19T06:41:07.163Z,9.63
2023-02-19T06:43:35.526Z,9.65
2023-02-19T06:46:04.425Z,9.65
2023-02-19T06:48:32.611Z,9.59
2023-02-19T06:51:01.627Z,9.66
2023-02-19T06:53:29.147Z,9.66
2023-02-19T06:55:57.730Z,9.67
2023-02-19T06:58:25.509Z,9.66
2023-02-19T07:00:53.711Z,9.71
2023-02-19T07:03:21.626Z,9.81
2023-02-19T07:05:49.196Z,9.79
2023-02-19T07:08:19.656Z,9.67
2023-02-19T07:10:47.629Z,9.78
2023-02-19T07:13:56.196Z,9.70
2023-02-19T07:16:24.061Z,9.51
2023-02-19T07:18:51.609Z,9.52
2023-02-19T07:21:19.740Z,9.39
2023-02-19T07:23:48.671Z,9.39
2023-02-19T07:26:17.912Z,9.34
2023-02-19T07:28:46.129Z,9.28
2023-02-19T07:31:14.666Z,9.33
2023-02-19T07:33:43.837Z,9.25
2023-02-19T07:36:12.032Z,9.35
2023-02-19T07:38:39.892Z,9.38
2023-02-19T07:41:09.711Z,9.38
2023-02-19T07:43:38.810Z,9.46
2023-02-19T07:46:06.996Z,9.48
2023-02-19T07:48:35.734Z,9.43
2023-02-19T07:51:04.442Z,9.39
2023-02-19T07:53:32.435Z,9.41
2023-02-19T07:56:01.480Z,9.46
2023-02-19T07:58:30.555Z,9.55
2023-02-19T08:00:58.682Z,9.57
2023-02-19T08:03:25.272Z,9.60
2023-02-19T08:05:53.792Z,9.61
2023-02-19T08:08:21.556Z,9.49
2023-02-19T08:11:06.664Z,9.48
2023-02-19T08:13:35.654Z,9.51
2023-02-19T08:16:21.731Z,9.58
2023-02-19T08:18:54.281Z,9.46
2023-02-19T08:21:21.824Z,9.36
2023-02-19T08:23:51.179Z,9.50
2023-02-19T08:26:18.925Z,9.49
2023-02-19T08:28:49.186Z,9.40
2023-02-19T08:31:16.830Z,9.47
2023-02-19T08:33:44.397Z,9.49
2023-02-19T08:36:12.138Z,9.46
2023-02-19T08:38:39.754Z,9.67
2023-02-19T08:41:08.178Z,9.54
2023-02-19T08:43:36.286Z,9.71
2023-02-19T08:46:06.913Z,9.78
2023-02-19T08:48:34.808Z,9.85
2023-02-19T08:51:04.703Z,9.90
2023-02-19T08:53:33.068Z,9.82
2023-02-19T08:56:00.655Z,9.95
2023-02-19T08:58:28.155Z,9.90
2023-02-19T09:00:55.626Z,9.91
2023-02-19T09:03:24.512Z,9.91
2023-02-19T09:05:51.970Z,9.93
2023-02-19T09:08:19.501Z,10.07
2023-02-19T09:10:47.317Z,10.23
2023-02-19T09:13:14.932Z,10.25
2023-02-19T09:15:42.605Z,10.32
2023-02-19T09:18:10.120Z,10.42
2023-02-19T09:20:38.956Z,10.46
2023-02-19T09:23:06.431Z,10.42
2023-02-19T09:25:33.965Z,10.41
2023-02-19T09:28:01.523Z,10.51
2023-02-19T09:30:29.126Z,10.47
2023-02-19T09:32:56.768Z,10.53
2023-02-19T09:35:24.407Z,10.50
2023-02-19T09:37:53.286Z,10.57
2023-02-19T09:40:21.780Z,10.54
2023-02-19T09:42:50.552Z,10.49
2023-02-19T09:45:23.055Z,10.46
2023-02-19T09:47:51.115Z,10.47
2023-02-19T09:50:22.584Z,10.41
2023-02-19T09:52:54.058Z,10.23
2023-02-19T09:55:30.400Z,10.24
2023-02-19T09:57:58.749Z,10.35
2023-02-19T10:00:27.307Z,9.98
2023-02-19T10:02:56.322Z,10.29
2023-02-19T10:05:24.897Z,9.96
2023-02-19T10:07:55.181Z,9.84
2023-02-19T10:10:28.035Z,9.93
2023-02-19T10:13:00.960Z,9.79
2023-02-19T10:15:31.950Z,9.76
2023-02-19T10:17:59.556Z,9.81
2023-02-19T10:20:27.919Z,9.85
2023-02-19T10:23:01.515Z,9.87
2023-02-19T10:25:29.351Z,9.79
2023-02-19T10:27:58.815Z,9.94
2023-02-19T10:30:29.325Z,10.01
2023-02-19T10:33:02.747Z,9.86
2023-02-19T10:35:30.796Z,10.04
2023-02-19T10:41:04.968Z,10.01
2023-02-19T10:43:34.278Z,10.05
2023-02-19T10:46:03.597Z,10.15
2023-02-19T10:48:33.002Z,10.19
2023-02-19T10:51:05.030Z,10.19
2023-02-19T10:53:44.817Z,10.32
2023-02-19T10:56:16.211Z,10.61
2023-02-19T10:58:47.155Z,10.35
2023-02-19T11:01:19.430Z,10.40
2023-02-19T11:03:48.297Z,10.34
2023-02-19T11:06:17.581Z,10.35
2023-02-19T11:08:51.604Z,10.40
2023-02-19T11:11:33.088Z,10.39
2023-02-19T11:14:02.590Z,10.46
2023-02-19T11:16:40.247Z,10.61
2023-02-19T11:19:23.060Z,10.73
2023-02-19T11:21:50.766Z,10.73
2023-02-19T11:24:25.608Z,10.88
2023-02-19T11:26:54.871Z,11.12
2023-02-19T11:29:24.506Z,11.35
2023-02-19T11:31:52.202Z,11.28
2023-02-19T11:34:34.796Z,11.23
2023-02-19T11:37:14.441Z,11.41
2023-02-19T11:39:43.643Z,11.64
2023-02-19T11:42:24.623Z,11.69
2023-02-19T11:45:08.204Z,11.61
2023-02-19T11:47:46.448Z,11.46
2023-02-19T11:50:22.546Z,11.28
2023-02-19T11:52:56.458Z,11.48
2023-02-19T11:55:28.834Z,11.54
2023-02-19T11:58:23.089Z,11.53
2023-02-19T12:01:12.139Z,11.56
2023-02-19T12:03:51.745Z,11.57
2023-02-19T12:06:24.740Z,11.38
2023-02-19T12:09:14.758Z,11.50
2023-02-19T12:11:53.457Z,11.72
2023-02-19T12:14:51.700Z,11.79
2023-02-19T12:17:28.710Z,11.81
2023-02-19T12:20:03.255Z,12.00
2023-02-19T12:22:32.558Z,11.83
2023-02-19T12:25:29.605Z,11.96
2023-02-19T12:28:09.491Z,11.85
2023-02-19T12:31:12.602Z,11.73
2023-02-19T12:34:25.840Z,11.77
2023-02-19T12:37:02.075Z,11.93
2023-02-19T12:39:33.284Z,11.87
2023-02-19T12:42:04.570Z,12.03
2023-02-19T12:44:39.472Z,11.97
2023-02-19T12:47:17.219Z,11.84
2023-02-19T12:49:47.551Z,11.78
2023-02-19T12:52:18.876Z,11.77
2023-02-19T12:54:47.851Z,11.85
2023-02-19T12:57:18.350Z,12.02
2023-02-19T12:59:49.566Z,12.01
2023-02-19T13:02:21.684Z,11.85
2023-02-19T13:04:54.098Z,12.13
2023-02-19T13:07:24.104Z,12.09
2023-02-19T13:09:54.111Z,11.94
2023-02-19T13:12:23.048Z,11.93
2023-02-19T13:14:54.262Z,11.75
2023-02-19T13:17:28.032Z,11.87
2023-02-19T13:19:59.688Z,11.80
2023-02-19T13:22:50.478Z,11.76
2023-02-19T13:25:19.559Z,11.50
2023-02-19T13:28:07.601Z,11.51
2023-02-19T13:31:03.488Z,11.56
2023-02-19T13:33:47.294Z,11.34
2023-02-19T13:36:17.493Z,11.44
2023-02-19T13:38:46.666Z,11.56
2023-02-19T13:41:22.801Z,11.41
2023-02-19T13:43:58.259Z,11.59
2023-02-19T13:46:26.635Z,11.46
2023-02-19T13:49:35.083Z,11.67
2023-02-19T13:52:03.549Z,11.68
2023-02-19T13:54:33.259Z,11.81
2023-02-19T13:57:29.331Z,11.55
2023-02-19T13:59:57.749Z,11.43
2023-02-19T14:02:30.518Z,11.52
2023-02-19T14:05:01.338Z,11.42
2023-02-19T14:07:54.015Z,11.47
2023-02-19T14:10:51.819Z,11.36
2023-02-19T14:13:51.992Z,11.27
2023-02-19T14:16:38.697Z,11.23
2023-02-19T14:19:15.128Z,11.05
2023-02-19T14:21:54.250Z,10.93
2023-02-19T14:24:25.646Z,10.90
2023-02-19T14:26:57.522Z,10.94
2023-02-19T14:29:29.168Z,10.79
2023-02-19T14:32:02.456Z,10.80
2023-02-19T14:34:34.432Z,10.92
2023-02-19T14:37:09.269Z,11.07
2023-02-19T14:39:39.217Z,11.08
2023-02-19T14:44:43.730Z,11.38
2023-02-19T14:47:33.008Z,11.46
2023-02-19T14:50:15.643Z,11.45
2023-02-19T14:52:50.367Z,11.38
2023-02-19T14:55:29.230Z,11.39
2023-02-19T14:58:12.056Z,11.28
2023-02-19T15:00:44.581Z,11.21
2023-02-19T15:03:28.765Z,11.13
2023-02-19T15:05:59.027Z,11.19
2023-02-19T15:08:37.704Z,11.10
2023-02-19T15:11:11.550Z,11.29
2023-02-19T15:13:45.424Z,11.31
2023-02-19T15:16:26.065Z,11.27
2023-02-19T15:18:57.881Z,11.39
2023-02-19T15:21:34.913Z,11.41
2023-02-19T15:24:08.148Z,11.32
2023-02-19T15:26:41.072Z,11.37
2023-02-19T15:29:14.347Z,11.25
2023-02-19T15:31:46.685Z,11.31
2023-02-19T15:34:21.047Z,11.15
2023-02-19T15:36:51.090Z,11.08
2023-02-19T15:39:28.707Z,11.21
2023-02-19T15:42:00.007Z,11.17
2023-02-19T15:44:35.678Z,11.16
2023-02-19T15:47:12.353Z,11.03
2023-02-19T15:49:45.783Z,11.03
2023-02-19T15:52:19.613Z,10.99
2023-02-19T15:54:52.727Z,10.98
2023-02-19T15:57:22.865Z,11.03
2023-02-19T15:59:52.685Z,11.18
2023-02-19T16:02:20.278Z,11.06
2023-02-19T16:04:47.989Z,11.01
2023-02-19T16:07:25.477Z,10.95
2023-02-19T16:10:08.734Z,10.92
2023-02-19T16:12:36.242Z,10.86
2023-02-19T16:15:14.036Z,10.89
2023-02-19T16:17:45.575Z,10.98
2023-02-19T16:20:21.054Z,10.74
2023-02-19T16:22:48.626Z,10.68
2023-02-19T16:25:30.453Z,10.63
2023-02-19T16:27:58.669Z,10.59
2023-02-19T16:30:31.929Z,10.55
2023-02-19T16:33:22.549Z,10.25
2023-02-19T16:35:55.227Z,10.49
2023-02-19T16:38:22.700Z,10.57
2023-02-19T16:41:13.798Z,10.49
2023-02-19T16:43:43.153Z,10.31
2023-02-19T16:46:13.015Z,10.27
2023-02-19T16:48:40.695Z,10.18
2023-02-19T16:51:10.329Z,10.33
2023-02-19T16:53:38.062Z,10.41
2023-02-19T16:56:06.444Z,10.29
2023-02-19T16:58:35.364Z,10.24
2023-02-19T17:01:05.307Z,10.39
2023-02-19T17:03:33.170Z,10.36
2023-02-19T17:06:03.108Z,10.29
2023-02-19T17:08:34.358Z,10.05
2023-02-19T17:11:11.236Z,9.91
2023-02-19T17:13:54.365Z,9.96
2023-02-19T17:16:40.098Z,10.06
2023-02-19T17:19:19.879Z,10.01
2023-02-19T17:21:56.316Z,10.08
2023-02-19T17:24:40.889Z,9.93
2023-02-19T17:27:15.008Z,10.02
2023-02-19T17:29:45.463Z,9.89
2023-02-19T17:32:18.478Z,9.95
2023-02-19T17:34:52.352Z,9.93
2023-02-19T17:37:26.293Z,10.11
2023-02-19T17:40:00.379Z,10.01
2023-02-19T17:42:38.856Z,10.04
2023-02-19T17:45:12.820Z,10.15
2023-02-19T17:47:40.645Z,10.04
2023-02-19T17:50:36.827Z,10.03
2023-02-19T17:53:12.124Z,9.92
2023-02-19T17:55:40.392Z,9.84
2023-02-19T17:58:10.224Z,9.91
2023-02-19T18:00:39.211Z,9.98
2023-02-19T18:03:07.552Z,9.87
2023-02-19T18:05:35.104Z,9.96
2023-02-19T18:08:02.709Z,9.97
2023-02-19T18:10:34.404Z,9.95
2023-02-19T18:13:01.910Z,9.96
2023-02-19T18:15:31.555Z,9.98
2023-02-19T18:18:00.903Z,9.98
2023-02-19T18:20:31.130Z,10.03
2023-02-19T18:22:59.046Z,10.04
2023-02-19T18:25:26.963Z,10.01
2023-02-19T18:27:55.158Z,9.93
2023-02-19T18:30:23.859Z,9.98
2023-02-19T18:32:51.929Z,9.78
2023-02-19T18:35:22.713Z,9.78
2023-02-19T18:37:51.992Z,9.77
2023-02-19T18:40:21.044Z,9.84
2023-02-19T18:42:48.759Z,9.69
2023-02-19T18:45:16.436Z,9.57
2023-02-19T18:47:46.981Z,9.59
2023-02-19T18:50:14.889Z,9.72
2023-02-19T18:52:45.429Z,9.69
2023-02-19T18:55:20.134Z,9.64
2023-02-19T18:57:54.227Z,9.73
2023-02-19T19:00:27.311Z,9.80
2023-02-19T19:02:59.397Z,9.53
2023-02-19T19:05:42.448Z,9.43
2023-02-19T19:08:13.164Z,9.45
2023-02-19T19:10:53.250Z,9.58
2023-02-19T19:13:23.501Z,9.53
2023-02-19T19:15:56.083Z,9.46
2023-02-19T19:18:28.248Z,9.46
2023-02-19T19:21:18.359Z,9.47
2023-02-19T19:23:50.869Z,9.40
2023-02-19T19:26:21.121Z,9.42
2023-02-19T19:28:57.448Z,9.46
2023-02-19T19:31:41.749Z,9.46
2023-02-19T19:35:07.097Z,9.49
2023-02-19T19:37:20.330Z,9.68
2023-02-19T19:40:04.179Z,9.63
2023-02-19T19:42:49.497Z,9.66
2023-02-19T19:45:30.419Z,9.54
2023-02-19T19:48:00.439Z,9.56
2023-02-19T19:50:33.200Z,9.44
2023-02-19T19:53:43.446Z,9.47
2023-02-19T19:57:08.153Z,9.68
2023-02-19T20:00:01.957Z,9.63
2023-02-19T20:02:31.022Z,9.54
2023-02-19T20:05:04.852Z,9.49
2023-02-19T20:07:44.549Z,9.35
2023-02-19T20:11:33.733Z,9.48
2023-02-19T20:13:24.856Z,9.37
2023-02-19T20:16:22.804Z,9.06
2023-02-19T20:18:51.903Z,9.08
2023-02-19T20:21:25.850Z,8.93
2023-02-19T20:23:55.416Z,9.11
2023-02-19T20:26:29.530Z,9.16
2023-02-19T20:29:02.440Z,9.36
2023-02-19T20:31:31.747Z,9.19
2023-02-19T20:34:01.250Z,9.29
2023-02-19T20:36:33.636Z,9.37
2023-02-19T20:41:08.140Z,9.23
2023-02-19T20:42:30.742Z,9.44
2023-02-19T20:45:32.156Z,9.36
2023-02-19T20:51:02.306Z,9.47
2023-02-19T20:53:48.118Z,9.28
2023-02-19T20:56:24.730Z,9.28
2023-02-19T20:59:35.986Z,9.45
2023-02-19T21:02:12.451Z,9.40
2023-02-19T21:05:40.720Z,9.33
2023-02-19T21:07:45.097Z,9.43
2023-02-19T21:11:16.876Z,9.24
2023-02-19T21:13:55.772Z,9.23
2023-02-19T21:16:33.430Z,9.07
2023-02-19T21:19:27.376Z,9.17
2023-02-19T21:22:00.151Z,9.27
2023-02-19T21:25:03.125Z,9.29
2023-02-19T21:27:22.966Z,9.24
2023-02-19T21:29:53.450Z,9.33
2023-02-19T21:32:51.008Z,9.26
2023-02-19T21:35:22.369Z,9.30
2023-02-19T21:37:50.671Z,9.31
2023-02-19T21:40:22.019Z,9.21
2023-02-19T21:42:49.757Z,9.40
2023-02-19T21:45:19.982Z,9.36
2023-02-19T21:47:54.977Z,9.40
2023-02-19T21:50:27.341Z,9.36
2023-02-19T21:52:56.781Z,9.38
2023-02-19T21:55:24.294Z,9.36
2023-02-19T21:57:52.080Z,9.19
2023-02-19T22:00:20.174Z,9.25
2023-02-19T22:02:48.124Z,9.34
2023-02-19T22:05:16.681Z,9.28
2023-02-19T22:07:45.631Z,9.33
2023-02-19T22:11:17.984Z,9.38
2023-02-19T22:13:19.449Z,9.25
2023-02-19T22:15:47.088Z,9.30
2023-02-19T22:18:18.921Z,9.17
2023-02-19T22:20:52.365Z,9.33
2023-02-19T22:23:24.485Z,9.47
2023-02-19T22:25:52.290Z,9.37
2023-02-19T22:28:19.865Z,9.40
2023-02-19T22:30:47.791Z,9.17
2023-02-19T22:33:17.686Z,9.20
2023-02-19T22:35:45.188Z,9.23
2023-02-19T22:38:12.943Z,9.40
2023-02-19T22:40:41.909Z,9.38
2023-02-19T22:43:09.579Z,9.40
2023-02-19T22:45:37.311Z,9.36
2023-02-19T22:48:05.171Z,9.33
2023-02-19T22:50:32.730Z,9.31
2023-02-19T22:53:00.310Z,9.38
2023-02-19T22:55:27.849Z,9.33
2023-02-19T22:57:57.181Z,9.24
2023-02-19T23:00:25.003Z,9.13
2023-02-19T23:02:52.704Z,9.21
2023-02-19T23:05:21.032Z,9.23
2023-02-19T23:07:48.657Z,9.16
2023-02-19T23:10:16.330Z,9.00
2023-02-19T23:12:43.917Z,9.06
2023-02-19T23:15:13.034Z,8.94
2023-02-19T23:17:40.617Z,8.93
2023-02-19T23:20:09.157Z,9.05
2023-02-19T23:22:36.927Z,9.00
2023-02-19T23:25:04.641Z,9.06
2023-02-19T23:27:32.320Z,8.87
2023-02-19T23:29:59.894Z,8.99
2023-02-19T23:32:28.935Z,9.00
2023-02-19T23:34:56.660Z,8.95
2023-02-19T23:37:25.570Z,9.01
2023-02-19T23:39:53.526Z,9.09
2023-02-19T23:42:21.100Z,9.15
2023-02-19T23:44:48.907Z,8.95
2023-02-19T23:47:16.677Z,8.89
2023-02-19T23:49:45.679Z,8.82
2023-02-19T23:52:13.439Z,8.90
2023-02-19T23:54:41.044Z,8.87
2023-02-19T23:57:08.595Z,8.57
2023-02-19T23:59:36.152Z,8.72
